createdAt,value
2023-02-28T00:02:44.252Z,7.33
2023-02-28T00:06:45.489Z,9.90
2023-02-28T00:10:46.450Z,11.33
2023-02-28T00:14:47.648Z,9.93
2023-02-28T00:18:49.541Z,7.93
2023-02-28T00:22:52.538Z,10.57
2023-02-28T00:26:53.604Z,8.63
2023-02-28T00:30:54.780Z,9.47
2023-02-28T00:34:56.367Z,9.57
2023-02-28T00:38:57.584Z,9.60
2023-02-28T00:42:58.539Z,9.20
2023-02-28T00:47:00.553Z,8.10
2023-02-28T00:51:01.879Z,11.47
2023-02-28T00:55:03.227Z,10.33
2023-02-28T00:59:04.441Z,13.17
2023-02-28T01:03:05.667Z,10.37
2023-02-28T01:07:06.993Z,11.40
2023-02-28T01:15:18.196Z,11.77
2023-02-28T01:19:19.127Z,11.47
2023-02-28T01:23:23.705Z,10.43
2023-02-28T01:27:24.953Z,11.67
2023-02-28T01:31:26.739Z,11.93
2023-02-28T01:35:28.008Z,14.47
2023-02-28T01:39:29.192Z,11.47
2023-02-28T01:43:33.332Z,14.70
2023-02-28T01:47:41.156Z,12.10
2023-02-28T01:51:51.580Z,9.53
2023-02-28T01:55:54.233Z,11.60
2023-02-28T02:00:01.499Z,10.63
2023-02-28T02:04:04.254Z,13.60
2023-02-28T02:08:09.075Z,13.20
2023-02-28T02:12:23.033Z,15.90
2023-02-28T02:16:36.992Z,15.83
2023-02-28T02:20:58.045Z,14.27
2023-02-28T02:25:26.768Z,14.67
2023-02-28T02:29:34.306Z,14.10
2023-02-28T02:34:12.339Z,17.43
2023-02-28T02:38:23.460Z,15.97
2023-02-28T02:42:28.452Z,14.73
2023-02-28T02:46:36.302Z,16.13
2023-02-28T02:50:41.063Z,17.07
2023-02-28T02:54:45.464Z,17.17
2023-02-28T02:58:49.919Z,17.23
2023-02-28T03:02:54.711Z,15.60
2023-02-28T03:06:55.872Z,16.13
2023-02-28T03:11:00.653Z,16.30
2023-02-28T03:15:14.719Z,21.67
2023-02-28T03:19:36.563Z,13.80
2023-02-28T03:23:41.518Z,16.50
2023-02-28T03:28:02.979Z,18.73
2023-02-28T03:32:08.414Z,14.13
2023-02-28T03:36:16.144Z,13.43
2023-02-28T03:40:22.825Z,19.83
2023-02-28T03:44:42.539Z,13.63
2023-02-28T03:48:48.538Z,12.97
2023-02-28T03:52:53.369Z,12.53
2023-02-28T03:57:10.328Z,15.37
2023-02-28T04:01:15.274Z,13.63
2023-02-28T04:05:16.577Z,14.23
2023-02-28T04:09:18.415Z,14.27
2023-02-28T04:13:19.527Z,19.23
2023-02-28T04:17:20.513Z,14.33
2023-02-28T04:21:22.364Z,14.27
2023-02-28T04:25:23.499Z,13.37
2023-02-28T04:29:28.299Z,17.33
2023-02-28T04:33:30.577Z,14.00
2023-02-28T04:37:33.661Z,12.27
2023-02-28T04:41:34.947Z,14.27
2023-02-28T04:45:36.194Z,14.23
2023-02-28T04:49:37.195Z,16.43
2023-02-28T04:53:39.658Z,17.00
2023-02-28T04:57:42.552Z,14.13
2023-02-28T05:01:46.722Z,15.73
2023-02-28T05:05:48.105Z,13.07
2023-02-28T05:09:49.236Z,15.13
2023-02-28T05:13:51.580Z,17.40
2023-02-28T05:17:52.600Z,16.83
2023-02-28T05:21:55.501Z,14.50
2023-02-28T05:25:57.291Z,12.90
2023-02-28T05:29:59.450Z,14.87
2023-02-28T05:34:00.939Z,13.47
2023-02-28T05:38:02.439Z,15.00
2023-02-28T05:42:03.933Z,13.03
2023-02-28T05:46:10.235Z,12.87
2023-02-28T05:50:11.795Z,14.97
2023-02-28T05:54:14.013Z,17.87
2023-02-28T05:58:14.994Z,12.33
2023-02-28T06:02:17.700Z,15.10
2023-02-28T06:06:18.873Z,14.13
2023-02-28T06:10:20.067Z,16.60
2023-02-28T06:14:21.555Z,15.20
2023-02-28T06:18:22.608Z,15.93
2023-02-28T06:22:24.118Z,13.93
2023-02-28T06:26:26.118Z,13.87
2023-02-28T06:30:29.052Z,14.60
2023-02-28T06:34:30.027Z,15.63
2023-02-28T06:38:31.894Z,15.33
2023-02-28T06:42:33.003Z,17.37
2023-02-28T06:46:34.136Z,13.77
2023-02-28T06:50:35.093Z,12.13
2023-02-28T06:54:37.154Z,11.50
2023-02-28T06:58:39.675Z,9.87
2023-02-28T07:02:40.815Z,11.80
2023-02-28T07:06:42.217Z,10.87
2023-02-28T07:10:43.630Z,12.23
2023-02-28T07:14:44.762Z,9.53
2023-02-28T07:18:45.932Z,9.80
2023-02-28T07:22:48.742Z,8.80
2023-02-28T07:26:49.790Z,9.83
2023-02-28T07:30:50.887Z,11.53
2023-02-28T07:34:51.912Z,8.80
2023-02-28T07:38:53.495Z,10.30
2023-02-28T07:42:54.553Z,10.37
2023-02-28T07:46:55.529Z,8.37
2023-02-28T07:50:57.730Z,5.43
2023-02-28T07:54:58.841Z,9.73
2023-02-28T07:58:59.804Z,8.63
2023-02-28T08:03:01.100Z,8.33
2023-02-28T08:07:02.275Z,8.90
2023-02-28T08:11:03.889Z,9.40
2023-02-28T08:15:06.039Z,7.53
2023-02-28T08:23:16.162Z,10.33
2023-02-28T08:27:17.850Z,8.97
2023-02-28T08:31:19.916Z,8.90
2023-02-28T08:35:21.159Z,9.07
2023-02-28T08:39:22.275Z,10.20
2023-02-28T08:43:23.366Z,8.87
2023-02-28T08:47:24.441Z,10.97
2023-02-28T08:51:29.024Z,9.70
2023-02-28T08:55:30.500Z,6.87
2023-02-28T08:59:32.684Z,6.37
2023-02-28T09:03:33.676Z,7.00
2023-02-28T09:07:34.883Z,8.80
2023-02-28T09:11:36.360Z,6.63
2023-02-28T09:15:38.326Z,8.10
2023-02-28T09:19:39.308Z,9.67
2023-02-28T09:23:41.711Z,8.10
2023-02-28T09:27:43.183Z,8.13
2023-02-28T09:31:44.172Z,6.90
2023-02-28T09:35:45.287Z,6.73
2023-02-28T09:39:46.290Z,6.50
2023-02-28T09:43:51.327Z,8.27
2023-02-28T09:47:56.027Z,7.17
2023-02-28T09:52:00.570Z,9.23
2023-02-28T09:56:14.588Z,8.23
2023-02-28T10:00:22.512Z,6.17
2023-02-28T10:04:55.762Z,8.57
2023-02-28T10:09:06.368Z,8.07
2023-02-28T10:13:19.976Z,13.00
2023-02-28T10:17:30.810Z,8.80
2023-02-28T10:21:41.605Z,10.03
2023-02-28T10:25:48.391Z,8.83
2023-02-28T10:29:52.487Z,8.70
2023-02-28T10:33:53.497Z,8.97
2023-02-28T10:37:57.633Z,9.80
2023-02-28T10:41:58.610Z,8.83
2023-02-28T10:46:14.318Z,9.53
2023-02-28T10:50:38.599Z,8.57
2023-02-28T10:54:41.237Z,8.03
2023-02-28T10:59:00.964Z,11.77
2023-02-28T11:03:02.220Z,8.30
2023-02-28T11:07:06.777Z,6.20
2023-02-28T11:11:07.989Z,5.17
2023-02-28T11:15:31.479Z,7.63
2023-02-28T11:19:39.037Z,9.60
2023-02-28T11:23:41.860Z,10.87
2023-02-28T11:27:49.940Z,9.23
2023-02-28T11:32:03.921Z,9.97
2023-02-28T11:36:11.048Z,9.33
2023-02-28T11:40:18.401Z,9.70
2023-02-28T11:44:23.353Z,9.00
2023-02-28T11:48:43.947Z,10.37
2023-02-28T11:52:54.675Z,8.27
2023-02-28T11:56:59.520Z,7.60
2023-02-28T12:01:26.852Z,10.03
2023-02-28T12:05:31.771Z,10.73
2023-02-28T12:09:54.516Z,9.60
2023-02-28T12:14:14.630Z,9.33
2023-02-28T12:18:22.201Z,8.67
2023-02-28T12:22:30.659Z,10.13
2023-02-28T12:26:44.176Z,9.03
2023-02-28T12:31:00.528Z,8.53
2023-02-28T12:35:08.113Z,8.00
2023-02-28T12:39:13.185Z,9.80
2023-02-28T12:43:17.229Z,10.70
2023-02-28T12:47:19.452Z,8.23
2023-02-28T12:51:21.516Z,16.20
2023-02-28T12:55:29.240Z,7.03
2023-02-28T12:59:40.365Z,9.17
2023-02-28T13:04:10.226Z,11.53
2023-02-28T13:08:28.322Z,7.10
2023-02-28T13:12:29.662Z,10.70
2023-02-28T13:16:53.042Z,9.00
2023-02-28T13:20:54.281Z,7.93
2023-02-28T13:24:56.834Z,6.73
2023-02-28T13:29:01.394Z,9.33
2023-02-28T13:33:09.591Z,11.20
2023-02-28T13:37:26.535Z,10.87
2023-02-28T13:41:37.606Z,9.80
2023-02-28T13:45:39.965Z,6.80
2023-02-28T13:49:41.612Z,9.80
2023-02-28T13:53:48.822Z,8.53
2023-02-28T13:58:10.309Z,8.90
2023-02-28T14:02:21.365Z,8.37
2023-02-28T14:06:30.894Z,7.53
2023-02-28T14:10:36.167Z,7.80
2023-02-28T14:14:40.984Z,14.17
2023-02-28T14:19:04.379Z,10.53
2023-02-28T14:23:09.469Z,8.37
2023-02-28T14:27:23.212Z,8.07
2023-02-28T14:31:28.027Z,9.07
2023-02-28T14:35:41.735Z,9.37
2023-02-28T14:39:44.178Z,16.60
2023-02-28T14:43:51.017Z,10.37
2023-02-28T14:47:53.002Z,10.57
2023-02-28T14:52:15.468Z,10.33
2023-02-28T14:56:37.268Z,11.33
2023-02-28T15:00:50.712Z,9.47
2023-02-28T15:05:01.181Z,11.50
2023-02-28T15:09:19.182Z,9.20
2023-02-28T15:13:20.792Z,8.57
2023-02-28T15:17:25.210Z,9.40
2023-02-28T15:21:38.880Z,9.47
2023-02-28T15:25:40.770Z,11.40
2023-02-28T15:29:49.855Z,11.40
2023-02-28T15:33:56.084Z,11.37
2023-02-28T15:38:03.445Z,10.80
2023-02-28T15:42:20.365Z,10.23
2023-02-28T15:46:21.936Z,8.77
2023-02-28T15:50:23.357Z,10.07
2023-02-28T15:54:35.530Z,11.47
2023-02-28T15:58:37.515Z,11.23
2023-02-28T16:02:40.357Z,12.67
2023-02-28T16:06:43.697Z,8.67
2023-02-28T16:10:45.765Z,10.10
2023-02-28T16:14:51.194Z,9.63
2023-02-28T16:18:53.158Z,12.07
2023-02-28T16:22:54.660Z,10.23
2023-02-28T16:26:57.381Z,11.60
2023-02-28T16:31:02.811Z,15.90
2023-02-28T16:35:06.368Z,9.87
2023-02-28T16:39:07.422Z,10.57
2023-02-28T16:43:12.283Z,9.37
2023-02-28T16:47:13.417Z,10.70
2023-02-28T16:51:18.547Z,10.43
2023-02-28T16:55:20.382Z,11.20
2023-02-28T16:59:26.854Z,13.50
2023-02-28T17:03:33.408Z,9.53
2023-02-28T17:07:32.050Z,18.27
2023-02-28T17:11:33.358Z,13.50
2023-02-28T17:15:35.518Z,10.67
2023-02-28T17:19:38.522Z,9.77
2023-02-28T17:23:39.716Z,13.08
2023-02-28T17:27:41.057Z,16.57
2023-02-28T17:31:42.565Z,10.70
2023-02-28T17:35:43.624Z,11.63
2023-02-28T17:39:45.110Z,11.10
2023-02-28T17:43:46.498Z,10.27
2023-02-28T17:47:50.581Z,11.87
2023-02-28T17:51:51.865Z,11.77
2023-02-28T17:55:53.008Z,11.07
2023-02-28T17:59:54.048Z,11.17
2023-02-28T18:03:56.076Z,11.73
2023-02-28T18:07:57.491Z,14.53
2023-02-28T18:12:00.437Z,11.77
2023-02-28T18:16:01.675Z,13.48
2023-02-28T18:20:04.855Z,12.07
2023-02-28T18:24:06.272Z,11.90
2023-02-28T18:28:07.372Z,12.00
2023-02-28T18:32:09.424Z,12.77
2023-02-28T18:36:10.565Z,13.00
2023-02-28T18:40:14.181Z,14.83
2023-02-28T18:44:20.867Z,15.50
2023-02-28T18:48:20.145Z,14.03
2023-02-28T18:52:21.323Z,13.50
2023-02-28T18:56:24.354Z,14.43
2023-02-28T19:00:25.740Z,14.40
2023-02-28T19:04:27.288Z,15.20
2023-02-28T19:08:28.506Z,14.73
2023-02-28T19:12:35.375Z,14.37
2023-02-28T19:16:36.794Z,13.27
2023-02-28T19:20:38.385Z,17.13
2023-02-28T19:24:39.721Z,14.43
2023-02-28T19:28:41.440Z,15.23
2023-02-28T19:32:43.197Z,15.27
2023-02-28T19:36:44.612Z,16.23
2023-02-28T19:40:46.142Z,15.53
2023-02-28T19:44:47.312Z,14.73
2023-02-28T19:48:48.467Z,21.17
2023-02-28T19:52:49.966Z,15.00
2023-02-28T19:56:54.017Z,16.50
2023-02-28T20:00:55.203Z,18.47
2023-02-28T20:04:58.652Z,16.80
2023-02-28T20:09:00.214Z,14.93
2023-02-28T20:13:01.994Z,17.57
2023-02-28T20:17:05.449Z,19.27
2023-02-28T20:21:12.392Z,18.33
2023-02-28T20:25:13.925Z,18.80
2023-02-28T20:29:15.214Z,18.40
2023-02-28T20:33:17.410Z,19.67
2023-02-28T20:37:19.026Z,18.13
2023-02-28T20:41:21.213Z,18.20
2023-02-28T20:45:23.965Z,18.07
2023-02-28T20:49:25.482Z,19.40
2023-02-28T20:53:27.670Z,18.87
2023-02-28T20:57:29.903Z,18.57
2023-02-28T21:01:31.520Z,21.77
2023-02-28T21:05:32.605Z,22.03
2023-02-28T21:09:34.165Z,21.53
2023-02-28T21:13:35.828Z,22.53
2023-02-28T21:17:36.987Z,24.23
2023-02-28T21:21:42.697Z,21.83
2023-02-28T21:25:44.109Z,21.60
2023-02-28T21:29:45.400Z,20.83
2023-02-28T21:33:47.141Z,19.77
2023-02-28T21:37:48.279Z,21.43
2023-02-28T21:41:49.553Z,19.17
2023-02-28T21:45:50.572Z,24.83
2023-02-28T21:49:51.561Z,21.33
2023-02-28T21:53:53.579Z,23.40
2023-02-28T21:57:54.592Z,22.33
2023-02-28T22:01:55.820Z,22.67
2023-02-28T22:05:56.955Z,24.63
2023-02-28T22:09:58.120Z,22.40
2023-02-28T22:13:59.306Z,22.83
2023-02-28T22:18:00.433Z,25.00
2023-02-28T22:22:01.434Z,22.47
2023-02-28T22:26:04.829Z,22.47
2023-02-28T22:30:06.764Z,21.47
2023-02-28T22:34:10.322Z,25.17
2023-02-28T22:38:12.126Z,24.13
2023-02-28T22:42:13.266Z,24.70
2023-02-28T22:46:14.320Z,22.50
2023-02-28T22:50:15.925Z,24.70
2023-02-28T22:54:17.184Z,28.23
2023-02-28T22:58:19.238Z,25.43
2023-02-28T23:02:20.892Z,26.73
2023-02-28T23:06:31.243Z,26.60
2023-02-28T23:10:32.427Z,24.60
2023-02-28T23:14:33.729Z,24.00
2023-02-28T23:18:34.714Z,24.13
2023-02-28T23:22:35.778Z,27.30
2023-02-28T23:26:43.213Z,24.10
2023-02-28T23:30:44.269Z,24.23
2023-02-28T23:34:45.192Z,23.67
2023-02-28T23:38:48.531Z,23.67
2023-02-28T23:42:50.557Z,25.07
2023-02-28T23:46:52.461Z,30.03
2023-02-28T23:50:55.452Z,23.67
2023-02-28T23:54:56.465Z,23.97
2023-02-28T23:58:58.067Z,27.13
